createdAt,value
2023-05-09T00:01:46.924Z,3.42
2023-05-09T00:04:16.034Z,3.70
2023-05-09T00:06:43.681Z,4.30
2023-05-09T00:09:11.425Z,3.78
2023-05-09T00:11:40.191Z,3.77
2023-05-09T00:14:07.858Z,3.65
2023-05-09T00:16:36.801Z,3.90
2023-05-09T00:19:05.900Z,3.95
2023-05-09T00:21:34.192Z,3.80
2023-05-09T00:24:02.163Z,3.53
2023-05-09T00:26:29.703Z,3.72
2023-05-09T00:28:57.190Z,3.75
2023-05-09T00:31:24.948Z,3.53
2023-05-09T00:33:52.531Z,3.50
2023-05-09T00:36:21.425Z,4.47
2023-05-09T00:38:49.105Z,3.80
2023-05-09T00:41:16.670Z,3.95
2023-05-09T00:43:44.256Z,3.72
2023-05-09T00:46:11.926Z,4.18
2023-05-09T00:48:39.452Z,3.33
2023-05-09T00:51:07.103Z,4.30
2023-05-09T00:53:36.321Z,4.15
2023-05-09T00:56:04.831Z,4.68
2023-05-09T00:58:32.492Z,4.57
2023-05-09T01:01:02.268Z,4.60
2023-05-09T01:03:30.118Z,3.85
2023-05-09T01:06:04.241Z,4.55
2023-05-09T01:08:38.662Z,4.80
2023-05-09T01:11:11.883Z,3.92
2023-05-09T01:13:42.440Z,4.73
2023-05-09T01:16:15.583Z,3.95
2023-05-09T01:18:44.806Z,4.60
2023-05-09T01:21:14.749Z,4.10
2023-05-09T01:24:00.850Z,4.45
2023-05-09T01:26:37.591Z,3.70
2023-05-09T01:29:33.150Z,3.83
2023-05-09T01:32:02.635Z,3.80
2023-05-09T01:34:31.626Z,3.95
2023-05-09T01:37:00.808Z,3.50
2023-05-09T01:39:29.350Z,3.50
2023-05-09T01:41:58.800Z,3.05
2023-05-09T01:44:26.612Z,3.15
2023-05-09T01:46:57.262Z,3.92
2023-05-09T01:52:12.620Z,3.47
2023-05-09T01:54:41.350Z,3.50
2023-05-09T01:57:09.200Z,3.15
2023-05-09T01:59:37.038Z,3.28
2023-05-09T02:02:06.983Z,2.75
2023-05-09T02:04:35.618Z,2.77
2023-05-09T02:07:03.805Z,2.50
2023-05-09T02:09:31.510Z,2.50
2023-05-09T02:11:59.097Z,2.10
2023-05-09T02:14:26.799Z,2.40
2023-05-09T02:16:54.958Z,1.83
2023-05-09T02:19:23.886Z,2.13
2023-05-09T02:21:51.516Z,2.22
2023-05-09T02:24:20.721Z,2.10
2023-05-09T02:26:48.736Z,2.55
2023-05-09T02:29:17.750Z,2.53
2023-05-09T02:31:46.032Z,1.90
2023-05-09T02:34:14.346Z,2.13
2023-05-09T02:36:44.570Z,1.60
2023-05-09T02:39:12.263Z,1.90
2023-05-09T02:41:39.783Z,1.90
2023-05-09T02:44:07.485Z,1.83
2023-05-09T02:46:35.087Z,1.80
2023-05-09T02:49:02.659Z,1.55
2023-05-09T02:51:30.572Z,1.25
2023-05-09T02:53:59.501Z,1.50
2023-05-09T02:56:27.044Z,2.15
2023-05-09T02:58:54.690Z,2.05
2023-05-09T03:01:22.390Z,1.80
2023-05-09T03:03:49.987Z,2.17
2023-05-09T03:06:17.644Z,1.10
2023-05-09T03:08:45.602Z,2.15
2023-05-09T03:11:15.111Z,1.70
2023-05-09T03:13:42.693Z,2.22
2023-05-09T03:16:11.992Z,2.00
2023-05-09T03:18:39.967Z,1.90
2023-05-09T03:21:07.662Z,2.35
2023-05-09T03:23:35.580Z,3.10
2023-05-09T03:26:03.103Z,2.78
2023-05-09T03:28:32.420Z,2.38
2023-05-09T03:31:00.238Z,2.00
2023-05-09T03:33:27.881Z,2.35
2023-05-09T03:35:55.487Z,2.15
2023-05-09T03:38:24.348Z,2.60
2023-05-09T03:40:52.079Z,2.45
2023-05-09T03:43:19.666Z,2.70
2023-05-09T03:45:48.632Z,2.28
2023-05-09T03:48:16.264Z,2.22
2023-05-09T03:50:43.864Z,2.00
2023-05-09T03:53:11.429Z,2.40
2023-05-09T03:55:39.911Z,1.70
2023-05-09T03:58:07.840Z,2.55
2023-05-09T04:00:35.537Z,1.83
2023-05-09T04:03:05.469Z,1.88
2023-05-09T04:05:35.405Z,2.20
2023-05-09T04:08:03.055Z,2.10
2023-05-09T04:10:31.653Z,1.73
2023-05-09T04:12:59.257Z,2.08
2023-05-09T04:15:26.939Z,2.17
2023-05-09T04:17:54.672Z,2.00
2023-05-09T04:20:24.737Z,2.07
2023-05-09T04:22:52.295Z,2.55
2023-05-09T04:25:20.234Z,2.30
2023-05-09T04:27:48.324Z,2.28
2023-05-09T04:30:16.385Z,2.30
2023-05-09T04:32:46.858Z,2.40
2023-05-09T04:35:16.104Z,1.80
2023-05-09T04:37:47.220Z,2.03
2023-05-09T04:40:14.751Z,1.90
2023-05-09T04:42:42.436Z,2.10
2023-05-09T04:45:11.712Z,2.50
2023-05-09T04:47:39.386Z,2.58
2023-05-09T04:50:10.875Z,2.63
2023-05-09T04:52:38.499Z,2.08
2023-05-09T04:55:08.064Z,2.40
2023-05-09T04:57:35.727Z,2.40
2023-05-09T05:00:03.644Z,2.60
2023-05-09T05:02:31.696Z,2.78
2023-05-09T05:05:10.887Z,2.30
2023-05-09T05:07:40.511Z,2.63
2023-05-09T05:10:10.377Z,2.63
2023-05-09T05:12:37.901Z,2.28
2023-05-09T05:15:06.001Z,2.72
2023-05-09T05:17:33.598Z,2.33
2023-05-09T05:20:01.307Z,2.35
2023-05-09T05:22:30.355Z,2.30
2023-05-09T05:24:59.852Z,2.15
2023-05-09T05:27:28.753Z,1.90
2023-05-09T05:29:56.401Z,2.50
2023-05-09T05:32:24.177Z,2.22
2023-05-09T05:34:51.734Z,2.40
2023-05-09T05:37:19.327Z,2.83
2023-05-09T05:39:47.219Z,2.88
2023-05-09T05:42:14.689Z,2.60
2023-05-09T05:44:43.640Z,2.78
2023-05-09T05:47:11.261Z,2.50
2023-05-09T05:49:39.289Z,3.00
2023-05-09T05:52:06.953Z,2.30
2023-05-09T05:54:34.708Z,2.88
2023-05-09T05:57:02.529Z,3.17
2023-05-09T05:59:30.116Z,3.20
2023-05-09T06:01:59.382Z,2.85
2023-05-09T06:04:28.303Z,3.47
2023-05-09T06:06:56.045Z,3.15
2023-05-09T06:09:23.667Z,3.97
2023-05-09T06:11:55.276Z,4.40
2023-05-09T06:14:22.922Z,2.97
2023-05-09T06:16:50.595Z,3.63
2023-05-09T06:19:19.783Z,3.20
2023-05-09T06:21:48.130Z,3.58
2023-05-09T06:24:27.457Z,2.90
2023-05-09T06:27:02.750Z,3.65
2023-05-09T06:29:30.380Z,3.13
2023-05-09T06:31:57.934Z,3.33
2023-05-09T06:34:26.998Z,3.30
2023-05-09T06:36:54.656Z,2.83
2023-05-09T06:39:22.261Z,2.75
2023-05-09T06:41:49.918Z,3.22
2023-05-09T06:44:17.681Z,2.97
2023-05-09T06:46:45.622Z,2.85
2023-05-09T06:49:14.980Z,3.50
2023-05-09T06:51:46.587Z,3.30
2023-05-09T06:54:15.087Z,3.20
2023-05-09T06:56:42.588Z,3.08
2023-05-09T06:59:13.318Z,3.40
2023-05-09T07:01:41.381Z,4.20
2023-05-09T07:04:09.040Z,4.47
2023-05-09T07:06:36.768Z,3.92
2023-05-09T07:09:06.213Z,4.30
2023-05-09T07:11:35.419Z,4.13
2023-05-09T07:14:03.116Z,4.33
2023-05-09T07:16:30.937Z,4.95
2023-05-09T07:18:58.494Z,5.07
2023-05-09T07:21:26.210Z,5.35
2023-05-09T07:23:53.814Z,4.65
2023-05-09T07:26:22.682Z,5.43
2023-05-09T07:28:50.497Z,5.10
2023-05-09T07:31:18.227Z,4.57
2023-05-09T07:33:45.933Z,6.00
2023-05-09T07:36:14.793Z,4.80
2023-05-09T07:38:42.676Z,4.63
2023-05-09T07:41:10.359Z,4.43
2023-05-09T07:43:39.372Z,4.18
2023-05-09T07:46:07.088Z,4.07
2023-05-09T07:48:34.910Z,4.13
2023-05-09T07:51:02.399Z,3.43
2023-05-09T07:53:30.051Z,3.85
2023-05-09T07:55:58.737Z,3.17
2023-05-09T07:58:26.292Z,3.70
2023-05-09T08:00:56.206Z,3.60
2023-05-09T08:03:24.010Z,2.83
2023-05-09T08:05:54.163Z,2.83
2023-05-09T08:08:22.401Z,2.67
2023-05-09T08:10:50.202Z,2.90
2023-05-09T08:13:19.019Z,2.50
2023-05-09T08:15:47.544Z,2.00
2023-05-09T08:18:16.581Z,2.65
2023-05-09T08:20:44.289Z,2.53
2023-05-09T08:23:11.869Z,2.95
2023-05-09T08:25:39.472Z,3.10
2023-05-09T08:28:07.054Z,3.00
2023-05-09T08:30:34.695Z,2.88
2023-05-09T08:33:02.654Z,2.53
2023-05-09T08:35:31.554Z,2.72
2023-05-09T08:37:59.638Z,3.50
2023-05-09T08:40:27.219Z,2.63
2023-05-09T08:42:55.143Z,3.53
2023-05-09T08:45:27.244Z,3.70
2023-05-09T08:47:55.062Z,3.30
2023-05-09T08:50:23.353Z,3.90
2023-05-09T08:52:52.642Z,3.83
2023-05-09T08:55:20.209Z,3.80
2023-05-09T08:57:48.412Z,4.50
2023-05-09T09:00:20.266Z,4.22
2023-05-09T09:02:48.981Z,4.47
2023-05-09T09:05:39.469Z,3.93
2023-05-09T09:08:07.789Z,4.63
2023-05-09T09:10:35.458Z,5.68
2023-05-09T09:13:04.908Z,4.85
2023-05-09T09:15:36.029Z,4.57
2023-05-09T09:18:09.568Z,3.73
2023-05-09T09:20:38.486Z,4.20
2023-05-09T09:23:10.520Z,4.45
2023-05-09T09:25:38.319Z,4.13
2023-05-09T09:28:06.524Z,3.20
2023-05-09T09:30:34.265Z,3.53
2023-05-09T09:33:03.887Z,3.15
2023-05-09T09:35:39.244Z,2.55
2023-05-09T09:38:08.346Z,2.47
2023-05-09T09:40:39.223Z,1.73
2023-05-09T09:43:07.981Z,1.43
2023-05-09T09:45:36.360Z,1.33
2023-05-09T09:48:07.474Z,1.48
2023-05-09T09:50:35.408Z,1.30
2023-05-09T09:53:03.567Z,1.40
2023-05-09T09:55:32.689Z,1.60
2023-05-09T09:58:00.414Z,1.33
2023-05-09T10:00:28.612Z,1.42
2023-05-09T10:02:57.017Z,1.70
2023-05-09T10:05:25.663Z,1.92
2023-05-09T10:07:55.595Z,1.40
2023-05-09T10:10:23.702Z,1.70
2023-05-09T10:12:55.057Z,1.98
2023-05-09T10:15:23.012Z,1.73
2023-05-09T10:17:54.121Z,1.65
2023-05-09T10:20:22.107Z,1.87
2023-05-09T10:22:50.122Z,1.63
2023-05-09T10:25:20.497Z,1.60
2023-05-09T10:27:49.152Z,1.17
2023-05-09T10:30:20.334Z,1.23
2023-05-09T10:32:50.035Z,0.77
2023-05-09T10:35:18.070Z,0.88
2023-05-09T10:37:47.483Z,0.98
2023-05-09T10:40:16.624Z,1.05
2023-05-09T10:42:45.962Z,0.85
2023-05-09T10:45:14.346Z,1.47
2023-05-09T10:47:44.865Z,1.25
2023-05-09T10:50:13.804Z,1.35
2023-05-09T10:53:00.528Z,1.30
2023-05-09T10:55:36.503Z,1.25
2023-05-09T10:58:19.657Z,0.90
2023-05-09T11:00:48.077Z,1.88
2023-05-09T11:03:19.166Z,1.65
2023-05-09T11:05:47.604Z,1.23
2023-05-09T11:08:22.085Z,1.35
2023-05-09T11:10:49.916Z,0.87
2023-05-09T11:13:21.322Z,0.88
2023-05-09T11:15:52.813Z,1.02
2023-05-09T11:18:22.065Z,1.23
2023-05-09T11:20:51.341Z,1.00
2023-05-09T11:23:19.825Z,1.20
2023-05-09T11:25:48.340Z,0.82
2023-05-09T11:28:28.258Z,0.70
2023-05-09T11:31:09.424Z,0.70
2023-05-09T11:33:40.524Z,0.85
2023-05-09T11:36:27.954Z,0.63
2023-05-09T11:39:03.048Z,0.70
2023-05-09T11:41:30.869Z,0.50
2023-05-09T11:43:59.539Z,0.60
2023-05-09T11:46:27.677Z,1.00
2023-05-09T11:48:57.948Z,0.50
2023-05-09T11:51:26.874Z,0.80
2023-05-09T11:53:55.105Z,0.70
2023-05-09T11:56:23.966Z,0.70
2023-05-09T11:58:52.075Z,0.95
2023-05-09T12:01:20.214Z,0.70
2023-05-09T12:03:49.418Z,0.65
2023-05-09T12:06:19.186Z,0.60
2023-05-09T12:08:47.838Z,0.95
2023-05-09T12:11:16.034Z,0.90
2023-05-09T12:13:48.460Z,0.90
2023-05-09T12:16:16.708Z,0.70
2023-05-09T12:18:48.767Z,0.77
2023-05-09T12:24:03.429Z,0.90
2023-05-09T12:26:31.228Z,0.83
2023-05-09T12:28:59.051Z,0.80
2023-05-09T12:31:27.076Z,0.60
2023-05-09T12:33:54.689Z,0.80
2023-05-09T12:36:22.283Z,0.65
2023-05-09T12:38:54.023Z,0.53
2023-05-09T12:41:36.849Z,0.70
2023-05-09T12:44:08.775Z,0.77
2023-05-09T12:46:37.547Z,0.60
2023-05-09T12:49:05.448Z,0.73
2023-05-09T12:51:33.231Z,0.63
2023-05-09T12:54:04.153Z,0.30
2023-05-09T12:56:36.375Z,0.70
2023-05-09T12:59:04.128Z,0.80
2023-05-09T13:01:31.947Z,0.60
2023-05-09T13:04:03.764Z,0.80
2023-05-09T13:06:31.792Z,0.82
2023-05-09T13:09:01.551Z,0.73
2023-05-09T13:11:29.953Z,0.68
2023-05-09T13:13:59.519Z,0.40
2023-05-09T13:16:27.209Z,0.60
2023-05-09T13:18:54.899Z,0.85
2023-05-09T13:21:22.792Z,0.50
2023-05-09T13:23:51.241Z,0.43
2023-05-09T13:26:19.938Z,0.40
2023-05-09T13:28:48.325Z,0.50
2023-05-09T13:31:17.718Z,0.40
2023-05-09T13:33:45.957Z,0.50
2023-05-09T13:36:16.103Z,0.50
2023-05-09T13:38:46.069Z,0.45
2023-05-09T13:41:19.936Z,0.40
2023-05-09T13:43:48.174Z,0.50
2023-05-09T13:46:17.215Z,0.60
2023-05-09T13:48:44.974Z,0.50
2023-05-09T13:51:12.783Z,0.50
2023-05-09T13:53:40.497Z,0.40
2023-05-09T13:56:09.291Z,0.50
2023-05-09T13:58:37.197Z,0.50
2023-05-09T14:01:04.975Z,0.43
2023-05-09T14:03:33.998Z,0.60
2023-05-09T14:06:01.906Z,0.50
2023-05-09T14:08:29.607Z,0.68
2023-05-09T14:10:57.276Z,0.55
2023-05-09T14:13:25.252Z,0.40
2023-05-09T14:15:52.941Z,0.55
2023-05-09T14:18:21.240Z,0.60
2023-05-09T14:20:51.039Z,0.40
2023-05-09T14:23:19.291Z,0.50
2023-05-09T14:25:47.094Z,0.73
2023-05-09T14:28:15.934Z,0.50
2023-05-09T14:30:43.760Z,0.63
2023-05-09T14:33:11.831Z,0.40
2023-05-09T14:35:41.491Z,0.60
2023-05-09T14:38:12.429Z,0.50
2023-05-09T14:40:40.167Z,0.75
2023-05-09T14:43:09.499Z,0.50
2023-05-09T14:45:37.052Z,0.40
2023-05-09T14:48:05.378Z,0.52
2023-05-09T14:50:33.461Z,0.50
2023-05-09T14:53:02.060Z,0.40
2023-05-09T14:55:31.542Z,0.60
2023-05-09T14:57:59.469Z,0.40
2023-05-09T15:00:28.806Z,0.60
2023-05-09T15:02:57.206Z,0.50
2023-05-09T15:05:25.095Z,0.73
2023-05-09T15:07:52.693Z,0.73
2023-05-09T15:10:20.769Z,0.50
2023-05-09T15:12:50.439Z,0.80
2023-05-09T15:15:18.783Z,0.50
2023-05-09T15:17:47.232Z,0.85
2023-05-09T15:20:16.326Z,0.60
2023-05-09T15:22:44.199Z,0.57
2023-05-09T15:25:12.465Z,0.50
2023-05-09T15:27:40.481Z,0.57
2023-05-09T15:30:10.572Z,0.65
2023-05-09T15:32:41.651Z,0.57
2023-05-09T15:35:09.753Z,0.45
2023-05-09T15:37:37.914Z,0.77
2023-05-09T15:40:06.146Z,0.90
2023-05-09T15:42:34.935Z,0.65
2023-05-09T15:45:03.716Z,0.53
2023-05-09T15:47:32.811Z,0.88
2023-05-09T15:50:00.591Z,0.63
2023-05-09T15:52:28.154Z,0.60
2023-05-09T15:54:56.285Z,0.80
2023-05-09T15:57:24.924Z,0.70
2023-05-09T15:59:54.392Z,0.77
2023-05-09T16:02:22.477Z,0.73
2023-05-09T16:04:51.685Z,0.90
2023-05-09T16:07:20.413Z,0.82
2023-05-09T16:09:48.461Z,0.40
2023-05-09T16:12:16.137Z,0.70
2023-05-09T16:14:43.875Z,0.50
2023-05-09T16:17:12.589Z,0.75
2023-05-09T16:19:40.994Z,0.50
2023-05-09T16:22:09.900Z,0.50
2023-05-09T16:24:38.472Z,0.50
2023-05-09T16:27:06.852Z,0.57
2023-05-09T16:29:35.389Z,0.75
2023-05-09T16:32:03.462Z,0.60
2023-05-09T16:34:32.093Z,0.60
2023-05-09T16:37:00.645Z,0.40
2023-05-09T16:39:31.657Z,0.55
2023-05-09T16:41:59.711Z,0.50
2023-05-09T16:44:27.486Z,0.50
2023-05-09T16:46:55.289Z,0.63
2023-05-09T16:49:23.429Z,0.50
2023-05-09T16:51:50.943Z,0.85
2023-05-09T16:54:18.731Z,0.45
2023-05-09T16:56:48.152Z,0.60
2023-05-09T16:59:15.712Z,0.80
2023-05-09T17:01:43.512Z,0.60
2023-05-09T17:04:11.255Z,0.70
2023-05-09T17:06:38.931Z,0.80
2023-05-09T17:09:07.673Z,0.52
2023-05-09T17:11:35.396Z,0.60
2023-05-09T17:14:04.387Z,0.50
2023-05-09T17:16:32.036Z,0.70
2023-05-09T17:18:59.768Z,0.52
2023-05-09T17:21:27.720Z,0.55
2023-05-09T17:23:55.398Z,0.50
2023-05-09T17:26:23.254Z,0.60
2023-05-09T17:28:50.765Z,0.50
2023-05-09T17:31:20.001Z,0.40
2023-05-09T17:33:49.425Z,0.70
2023-05-09T17:36:17.712Z,0.40
2023-05-09T17:38:45.912Z,0.32
2023-05-09T17:41:13.685Z,0.40
2023-05-09T17:43:41.159Z,0.40
2023-05-09T17:46:08.778Z,0.52
2023-05-09T17:48:38.438Z,0.30
2023-05-09T17:51:06.028Z,0.50
2023-05-09T17:53:33.561Z,0.73
2023-05-09T17:56:01.325Z,0.60
2023-05-09T17:58:29.950Z,0.60
2023-05-09T18:00:59.483Z,0.60
2023-05-09T18:03:28.677Z,0.52
2023-05-09T18:05:57.936Z,0.70
2023-05-09T18:08:25.914Z,0.45
2023-05-09T18:10:54.629Z,0.55
2023-05-09T18:13:26.289Z,0.50
2023-05-09T18:15:55.186Z,0.55
2023-05-09T18:18:23.180Z,0.40
2023-05-09T18:20:50.729Z,0.38
2023-05-09T18:23:19.682Z,0.55
2023-05-09T18:25:49.836Z,0.60
2023-05-09T18:28:23.102Z,0.50
2023-05-09T18:30:50.826Z,0.52
2023-05-09T18:33:18.326Z,0.60
2023-05-09T18:35:46.271Z,0.55
2023-05-09T18:38:14.055Z,0.50
2023-05-09T18:40:43.197Z,0.50
2023-05-09T18:43:10.839Z,0.50
2023-05-09T18:45:44.966Z,0.30
2023-05-09T18:48:12.948Z,0.80
2023-05-09T18:50:41.195Z,0.60
2023-05-09T18:53:09.022Z,0.75
2023-05-09T18:55:36.601Z,0.60
2023-05-09T18:58:05.757Z,0.50
2023-05-09T19:00:34.165Z,0.80
2023-05-09T19:03:02.197Z,0.50
2023-05-09T19:05:29.953Z,0.60
2023-05-09T19:07:57.723Z,0.55
2023-05-09T19:10:25.612Z,0.50
2023-05-09T19:12:53.404Z,0.60
2023-05-09T19:18:08.909Z,0.70
2023-05-09T19:20:36.914Z,0.60
2023-05-09T19:23:04.508Z,0.60
2023-05-09T19:25:33.871Z,0.50
2023-05-09T19:28:01.704Z,0.70
2023-05-09T19:30:30.689Z,0.30
2023-05-09T19:32:58.522Z,0.45
2023-05-09T19:35:26.673Z,0.73
2023-05-09T19:37:54.260Z,0.40
2023-05-09T19:40:22.508Z,0.67
2023-05-09T19:42:50.073Z,0.60
2023-05-09T19:45:17.713Z,0.60
2023-05-09T19:47:47.174Z,0.75
2023-05-09T19:50:15.155Z,0.60
2023-05-09T19:52:43.359Z,0.70
2023-05-09T19:55:11.230Z,0.90
2023-05-09T19:57:38.915Z,0.65
2023-05-09T20:00:07.232Z,0.90
2023-05-09T20:02:35.039Z,0.85
2023-05-09T20:05:04.626Z,1.03
2023-05-09T20:07:32.193Z,0.82
2023-05-09T20:09:59.932Z,1.15
2023-05-09T20:12:29.932Z,0.93
2023-05-09T20:14:57.919Z,0.75
2023-05-09T20:17:25.825Z,0.70
2023-05-09T20:19:53.490Z,1.17
2023-05-09T20:22:22.471Z,1.00
2023-05-09T20:24:50.344Z,0.98
2023-05-09T20:27:18.681Z,0.82
2023-05-09T20:29:46.442Z,1.40
2023-05-09T20:32:14.654Z,1.65
2023-05-09T20:34:42.605Z,1.15
2023-05-09T20:37:10.162Z,1.08
2023-05-09T20:39:39.287Z,1.15
2023-05-09T20:42:07.156Z,1.03
2023-05-09T20:44:34.748Z,1.00
2023-05-09T20:47:02.732Z,1.13
2023-05-09T20:49:30.365Z,1.33
2023-05-09T20:51:58.028Z,1.60
2023-05-09T20:54:25.979Z,1.80
2023-05-09T20:56:54.897Z,1.40
2023-05-09T20:59:22.532Z,1.33
2023-05-09T21:01:52.289Z,1.10
2023-05-09T21:04:20.239Z,1.00
2023-05-09T21:06:48.578Z,1.40
2023-05-09T21:09:16.349Z,1.17
2023-05-09T21:11:44.859Z,1.15
2023-05-09T21:14:13.796Z,1.10
2023-05-09T21:16:43.894Z,1.50
2023-05-09T21:19:11.837Z,1.20
2023-05-09T21:21:39.578Z,1.73
2023-05-09T21:24:09.210Z,1.60
2023-05-09T21:26:37.252Z,1.85
2023-05-09T21:29:05.388Z,1.95
2023-05-09T21:31:35.835Z,1.43
2023-05-09T21:34:10.006Z,2.35
2023-05-09T21:36:38.508Z,1.60
2023-05-09T21:39:09.113Z,1.77
2023-05-09T21:41:36.832Z,1.80
2023-05-09T21:44:04.939Z,2.10
2023-05-09T21:46:34.826Z,1.48
2023-05-09T21:49:02.886Z,1.40
2023-05-09T21:51:31.612Z,1.08
2023-05-09T21:53:59.168Z,1.60
2023-05-09T21:56:26.917Z,1.97
2023-05-09T21:58:54.839Z,2.10
2023-05-09T22:01:22.418Z,1.83
2023-05-09T22:03:51.615Z,1.70
2023-05-09T22:06:19.461Z,1.60
2023-05-09T22:08:47.032Z,1.60
2023-05-09T22:11:15.254Z,1.60
2023-05-09T22:13:47.288Z,1.75
2023-05-09T22:16:15.062Z,1.50
2023-05-09T22:18:42.610Z,1.30
2023-05-09T22:21:11.663Z,1.70
2023-05-09T22:23:39.942Z,1.65
2023-05-09T22:26:07.536Z,1.75
2023-05-09T22:28:35.362Z,2.17
2023-05-09T22:31:03.410Z,1.67
2023-05-09T22:33:30.981Z,1.80
2023-05-09T22:35:58.578Z,2.05
2023-05-09T22:38:28.026Z,1.90
2023-05-09T22:40:55.764Z,1.83
2023-05-09T22:43:25.420Z,2.10
2023-05-09T22:45:56.451Z,2.17
2023-05-09T22:48:24.116Z,2.70
2023-05-09T22:50:51.793Z,2.42
2023-05-09T22:53:20.028Z,2.90
2023-05-09T22:55:50.845Z,2.83
2023-05-09T22:58:18.471Z,2.33
2023-05-09T23:00:46.079Z,2.85
2023-05-09T23:03:13.845Z,3.08
2023-05-09T23:05:41.590Z,3.38
2023-05-09T23:08:09.340Z,3.53
2023-05-09T23:10:36.827Z,3.87
2023-05-09T23:13:06.063Z,3.88
2023-05-09T23:15:34.305Z,3.63
2023-05-09T23:18:01.913Z,3.72
2023-05-09T23:20:29.589Z,4.18
2023-05-09T23:22:57.233Z,4.00
2023-05-09T23:25:24.716Z,4.05
2023-05-09T23:27:54.368Z,4.43
2023-05-09T23:30:23.408Z,4.03
2023-05-09T23:32:51.005Z,4.15
2023-05-09T23:35:19.340Z,4.13
2023-05-09T23:37:47.405Z,4.40
2023-05-09T23:40:15.413Z,4.20
2023-05-09T23:42:43.286Z,4.70
2023-05-09T23:45:11.286Z,4.18
2023-05-09T23:47:40.304Z,4.60
2023-05-09T23:50:08.637Z,4.18
2023-05-09T23:52:36.280Z,4.32
2023-05-09T23:55:03.860Z,4.25
2023-05-09T23:57:31.700Z,3.58
2023-05-09T23:59:59.652Z,3.87
